sensor_id;sensor_type;location;lat;lon;timestamp;P1;durP1;ratioP1;P2;durP2;ratioP2
7497;SDS011;3790;48.806;9.140;2023-11-21T07:34:11;1.73;;;0.97;;
7497;SDS011;3790;48.806;9.140;2023-11-21T07:39:12;1.53;;;0.67;;
7497;SDS011;3790;48.806;9.140;2023-11-21T07:44:12;2.70;;;1.70;;
7497;SDS011;3790;48.806;9.140;2023-11-21T07:49:13;1.17;;;0.77;;
7497;SDS011;3790;48.806;9.140;2023-11-21T07:54:16;0.87;;;0.50;;
7497;SDS011;3790;48.806;9.140;2023-11-21T07:59:16;0.90;;;0.43;;
7497;SDS011;3790;48.806;9.140;2023-11-21T08:04:18;2.20;;;0.50;;
7497;SDS011;3790;48.806;9.140;2023-11-21T08:09:18;1.20;;;0.63;;
7497;SDS011;3790;48.806;9.140;2023-11-21T08:14:19;0.73;;;0.47;;
7497;SDS011;3790;48.806;9.140;2023-11-21T08:19:20;2.83;;;0.60;;
7497;SDS011;3790;48.806;9.140;2023-11-21T08:24:21;0.67;;;0.30;;
7497;SDS011;3790;48.806;9.140;2023-11-21T08:29:22;0.50;;;0.30;;
7497;SDS011;3790;48.806;9.140;2023-11-21T08:34:23;0.90;;;0.40;;
7497;SDS011;3790;48.806;9.140;2023-11-21T08:39:24;0.50;;;0.40;;
7497;SDS011;3790;48.806;9.140;2023-11-21T08:44:24;1.27;;;0.30;;
7497;SDS011;3790;48.806;9.140;2023-11-21T08:49:25;0.73;;;0.47;;
7497;SDS011;3790;48.806;9.140;2023-11-21T08:54:27;0.83;;;0.40;;
7497;SDS011;3790;48.806;9.140;2023-11-21T08:59:28;0.93;;;0.40;;
7497;SDS011;3790;48.806;9.140;2023-11-21T09:04:28;1.00;;;0.47;;
7497;SDS011;3790;48.806;9.140;2023-11-21T09:09:29;1.70;;;0.57;;
7497;SDS011;3790;48.806;9.140;2023-11-21T09:14:30;1.23;;;0.40;;
7497;SDS011;3790;48.806;9.140;2023-11-21T09:19:30;0.50;;;0.40;;
7497;SDS011;3790;48.806;9.140;2023-11-21T09:24:34;1.80;;;0.57;;
7497;SDS011;3790;48.806;9.140;2023-11-21T09:29:35;1.10;;;0.37;;
7497;SDS011;3790;48.806;9.140;2023-11-21T09:34:38;1.43;;;0.53;;
7497;SDS011;3790;48.806;9.140;2023-11-21T09:39:38;0.90;;;0.60;;
7497;SDS011;3790;48.806;9.140;2023-11-21T09:44:47;0.40;;;0.40;;
7497;SDS011;3790;48.806;9.140;2023-11-21T09:49:56;2.00;;;0.60;;
7497;SDS011;3790;48.806;9.140;2023-11-21T09:55:01;0.57;;;0.40;;
7497;SDS011;3790;48.806;9.140;2023-11-21T10:00:02;0.50;;;0.30;;
7497;SDS011;3790;48.806;9.140;2023-11-21T10:05:06;0.20;;;0.20;;
7497;SDS011;3790;48.806;9.140;2023-11-21T10:10:09;1.83;;;0.47;;
7497;SDS011;3790;48.806;9.140;2023-11-21T10:15:10;0.30;;;0.30;;
7497;SDS011;3790;48.806;9.140;2023-11-21T10:20:16;0.60;;;0.30;;
7497;SDS011;3790;48.806;9.140;2023-11-21T10:25:17;0.70;;;0.40;;
7497;SDS011;3790;48.806;9.140;2023-11-21T10:30:20;0.67;;;0.30;;
7497;SDS011;3790;48.806;9.140;2023-11-21T10:35:20;0.80;;;0.40;;
7497;SDS011;3790;48.806;9.140;2023-11-21T10:40:21;0.50;;;0.30;;
7497;SDS011;3790;48.806;9.140;2023-11-21T10:45:21;0.60;;;0.30;;
7497;SDS011;3790;48.806;9.140;2023-11-21T10:50:23;1.30;;;0.60;;
7497;SDS011;3790;48.806;9.140;2023-11-21T10:55:25;1.80;;;0.50;;
7497;SDS011;3790;48.806;9.140;2023-11-21T11:00:26;2.17;;;0.30;;
7497;SDS011;3790;48.806;9.140;2023-11-21T11:05:28;0.47;;;0.30;;
7497;SDS011;3790;48.806;9.140;2023-11-21T11:10:29;0.67;;;0.40;;
7497;SDS011;3790;48.806;9.140;2023-11-21T11:15:30;0.90;;;0.40;;
7497;SDS011;3790;48.806;9.140;2023-11-21T11:20:32;0.83;;;0.40;;
7497;SDS011;3790;48.806;9.140;2023-11-21T11:30:57;0.87;;;0.57;;
7497;SDS011;3790;48.806;9.140;2023-11-21T11:41:47;1.00;;;0.60;;
7497;SDS011;3790;48.806;9.140;2023-11-21T11:46:47;0.90;;;0.43;;
7497;SDS011;3790;48.806;9.140;2023-11-21T11:51:48;1.03;;;0.50;;
7497;SDS011;3790;48.806;9.140;2023-11-21T11:56:48;1.30;;;0.97;;
7497;SDS011;3790;48.806;9.140;2023-11-21T12:01:49;2.50;;;1.20;;
7497;SDS011;3790;48.806;9.140;2023-11-21T12:06:53;1.23;;;0.60;;
7497;SDS011;3790;48.806;9.140;2023-11-21T12:11:55;1.20;;;0.60;;
7497;SDS011;3790;48.806;9.140;2023-11-21T12:16:59;1.60;;;0.67;;
7497;SDS011;3790;48.806;9.140;2023-11-21T12:22:00;2.40;;;0.80;;
7497;SDS011;3790;48.806;9.140;2023-11-21T12:27:01;0.50;;;0.40;;
7497;SDS011;3790;48.806;9.140;2023-11-21T12:32:01;0.57;;;0.40;;
7497;SDS011;3790;48.806;9.140;2023-11-21T12:37:02;0.60;;;0.50;;
7497;SDS011;3790;48.806;9.140;2023-11-21T12:42:03;0.40;;;0.30;;
7497;SDS011;3790;48.806;9.140;2023-11-21T12:47:04;0.90;;;0.50;;
7497;SDS011;3790;48.806;9.140;2023-11-21T12:52:05;0.60;;;0.40;;
7497;SDS011;3790;48.806;9.140;2023-11-21T12:57:06;0.60;;;0.47;;
7497;SDS011;3790;48.806;9.140;2023-11-21T13:02:08;0.60;;;0.30;;
7497;SDS011;3790;48.806;9.140;2023-11-21T13:07:09;0.60;;;0.40;;
7497;SDS011;3790;48.806;9.140;2023-11-21T13:12:14;0.20;;;0.20;;
7497;SDS011;3790;48.806;9.140;2023-11-21T13:17:18;0.63;;;0.10;;
7497;SDS011;3790;48.806;9.140;2023-11-21T13:22:19;0.37;;;0.30;;
7497;SDS011;3790;48.806;9.140;2023-11-21T13:27:19;0.30;;;0.30;;
7497;SDS011;3790;48.806;9.140;2023-11-21T13:32:21;0.57;;;0.30;;
7497;SDS011;3790;48.806;9.140;2023-11-21T13:37:22;0.67;;;0.20;;
7497;SDS011;3790;48.806;9.140;2023-11-21T13:42:24;0.67;;;0.50;;
7497;SDS011;3790;48.806;9.140;2023-11-21T13:47:28;0.77;;;0.50;;
7497;SDS011;3790;48.806;9.140;2023-11-21T13:52:31;1.77;;;0.37;;
7497;SDS011;3790;48.806;9.140;2023-11-21T13:57:33;0.73;;;0.47;;
7497;SDS011;3790;48.806;9.140;2023-11-21T14:02:34;1.30;;;0.70;;
7497;SDS011;3790;48.806;9.140;2023-11-21T14:07:39;0.50;;;0.50;;
7497;SDS011;3790;48.806;9.140;2023-11-21T14:12:47;1.47;;;0.80;;
7497;SDS011;3790;48.806;9.140;2023-11-21T14:17:48;0.60;;;0.40;;
7497;SDS011;3790;48.806;9.140;2023-11-21T14:22:49;0.97;;;0.60;;
7497;SDS011;3790;48.806;9.140;2023-11-21T14:27:50;0.70;;;0.50;;
7497;SDS011;3790;48.806;9.140;2023-11-21T14:32:51;0.87;;;0.43;;
7497;SDS011;3790;48.806;9.140;2023-11-21T14:37:52;1.37;;;0.63;;
7497;SDS011;3790;48.806;9.140;2023-11-21T14:42:53;1.60;;;0.70;;
7497;SDS011;3790;48.806;9.140;2023-11-21T14:47:54;2.43;;;1.00;;
7497;SDS011;3790;48.806;9.140;2023-11-21T14:53:15;1.50;;;1.13;;
7497;SDS011;3790;48.806;9.140;2023-11-21T14:58:23;1.03;;;0.60;;
7497;SDS011;3790;48.806;9.140;2023-11-21T15:03:26;0.83;;;0.60;;
7497;SDS011;3790;48.806;9.140;2023-11-21T15:08:31;2.13;;;0.70;;
7497;SDS011;3790;48.806;9.140;2023-11-21T15:13:32;1.50;;;0.77;;
7497;SDS011;3790;48.806;9.140;2023-11-21T15:18:33;1.00;;;0.60;;
7497;SDS011;3790;48.806;9.140;2023-11-21T15:23:35;1.70;;;0.90;;
7497;SDS011;3790;48.806;9.140;2023-11-21T15:28:35;1.40;;;0.77;;
7497;SDS011;3790;48.806;9.140;2023-11-21T15:33:36;1.43;;;0.80;;
7497;SDS011;3790;48.806;9.140;2023-11-21T15:38:37;1.50;;;0.73;;
7497;SDS011;3790;48.806;9.140;2023-11-21T15:43:37;1.90;;;1.07;;
7497;SDS011;3790;48.806;9.140;2023-11-21T15:48:38;1.97;;;0.90;;
7497;SDS011;3790;48.806;9.140;2023-11-21T15:53:43;2.20;;;0.97;;
7497;SDS011;3790;48.806;9.140;2023-11-21T15:58:44;2.27;;;1.03;;
7497;SDS011;3790;48.806;9.140;2023-11-21T16:03:46;1.47;;;0.83;;
7497;SDS011;3790;48.806;9.140;2023-11-21T16:08:48;1.80;;;0.87;;
7497;SDS011;3790;48.806;9.140;2023-11-21T16:13:48;4.17;;;1.07;;
7497;SDS011;3790;48.806;9.140;2023-11-21T16:18:49;2.23;;;1.20;;
7497;SDS011;3790;48.806;9.140;2023-11-21T16:23:50;3.00;;;1.50;;
7497;SDS011;3790;48.806;9.140;2023-11-21T16:28:50;2.53;;;1.10;;
7497;SDS011;3790;48.806;9.140;2023-11-21T16:33:51;2.27;;;1.03;;
7497;SDS011;3790;48.806;9.140;2023-11-21T16:38:51;3.07;;;1.40;;
7497;SDS011;3790;48.806;9.140;2023-11-21T16:43:53;1.80;;;1.20;;
7497;SDS011;3790;48.806;9.140;2023-11-21T16:48:54;2.23;;;1.50;;
7497;SDS011;3790;48.806;9.140;2023-11-21T16:53:54;3.10;;;1.50;;
7497;SDS011;3790;48.806;9.140;2023-11-21T16:58:55;2.93;;;1.47;;
7497;SDS011;3790;48.806;9.140;2023-11-21T17:03:56;3.10;;;1.80;;
7497;SDS011;3790;48.806;9.140;2023-11-21T17:09:00;3.40;;;1.43;;
7497;SDS011;3790;48.806;9.140;2023-11-21T17:14:05;4.50;;;2.37;;
7497;SDS011;3790;48.806;9.140;2023-11-21T17:19:06;3.60;;;1.70;;
7497;SDS011;3790;48.806;9.140;2023-11-21T17:24:07;3.70;;;2.10;;
7497;SDS011;3790;48.806;9.140;2023-11-21T17:29:09;3.83;;;1.80;;
7497;SDS011;3790;48.806;9.140;2023-11-21T17:34:14;3.70;;;1.73;;
7497;SDS011;3790;48.806;9.140;2023-11-21T17:39:19;3.67;;;1.77;;
7497;SDS011;3790;48.806;9.140;2023-11-21T17:44:19;4.57;;;1.90;;
